createdAt,value
2023-04-10T00:01:47.881Z,12.76
2023-04-10T00:04:16.768Z,12.73
2023-04-10T00:06:45.216Z,12.94
2023-04-10T00:09:13.649Z,12.96
2023-04-10T00:11:41.960Z,12.86
2023-04-10T00:14:10.263Z,12.92
2023-04-10T00:16:38.629Z,12.93
2023-04-10T00:19:08.794Z,12.92
2023-04-10T00:21:37.158Z,12.97
2023-04-10T00:24:05.820Z,12.91
2023-04-10T00:26:34.163Z,12.82
2023-04-10T00:29:03.008Z,12.84
2023-04-10T00:31:31.659Z,12.81
2023-04-10T00:33:59.986Z,12.73
2023-04-10T00:36:29.707Z,12.66
2023-04-10T00:38:57.952Z,12.56
2023-04-10T00:41:26.366Z,12.47
2023-04-10T00:43:57.531Z,12.46
2023-04-10T00:46:27.592Z,12.29
2023-04-10T00:48:57.447Z,12.25
2023-04-10T00:51:26.514Z,12.16
2023-04-10T00:53:56.604Z,12.15
2023-04-10T00:56:26.066Z,12.01
2023-04-10T00:58:54.530Z,12.11
2023-04-10T01:01:22.923Z,12.07
2023-04-10T01:03:51.790Z,12.09
2023-04-10T01:06:32.131Z,11.91
2023-04-10T01:09:12.382Z,11.93
2023-04-10T01:11:54.493Z,11.82
2023-04-10T01:14:32.532Z,11.85
2023-04-10T01:17:08.567Z,11.87
2023-04-10T01:20:01.156Z,11.93
2023-04-10T01:22:37.669Z,11.23
2023-04-10T01:25:25.496Z,11.69
2023-04-10T01:28:10.636Z,11.61
2023-04-10T01:30:41.316Z,11.44
2023-04-10T01:33:14.416Z,11.47
2023-04-10T01:35:45.579Z,11.43
2023-04-10T01:38:15.077Z,11.41
2023-04-10T01:40:50.090Z,11.35
2023-04-10T01:43:27.807Z,11.24
2023-04-10T01:45:58.798Z,11.25
2023-04-10T01:48:27.648Z,11.20
2023-04-10T01:50:57.433Z,11.20
2023-04-10T01:53:26.800Z,11.17
2023-04-10T01:55:55.372Z,11.08
2023-04-10T01:58:23.921Z,11.01
2023-04-10T02:00:55.590Z,11.07
2023-04-10T02:03:25.950Z,11.05
2023-04-10T02:06:11.184Z,10.97
2023-04-10T02:08:43.984Z,10.86
2023-04-10T02:11:18.751Z,10.94
2023-04-10T02:13:48.442Z,10.87
2023-04-10T02:16:20.625Z,10.86
2023-04-10T02:18:52.929Z,10.84
2023-04-10T02:21:21.516Z,10.81
2023-04-10T02:23:49.860Z,10.77
2023-04-10T02:26:18.163Z,10.73
2023-04-10T02:28:46.478Z,10.39
2023-04-10T02:31:14.895Z,10.61
2023-04-10T02:33:43.273Z,10.58
2023-04-10T02:36:14.390Z,10.64
2023-04-10T02:38:42.752Z,10.63
2023-04-10T02:41:12.472Z,10.60
2023-04-10T02:43:41.325Z,10.66
2023-04-10T02:46:09.920Z,10.76
2023-04-10T02:48:41.364Z,10.77
2023-04-10T02:51:09.728Z,10.83
2023-04-10T02:53:39.668Z,10.80
2023-04-10T02:56:09.152Z,10.83
2023-04-10T02:58:37.460Z,10.84
2023-04-10T03:01:08.035Z,10.79
2023-04-10T03:03:45.313Z,10.95
2023-04-10T03:06:19.390Z,10.84
2023-04-10T03:08:49.825Z,10.77
2023-04-10T03:11:18.181Z,10.86
2023-04-10T03:13:46.569Z,10.78
2023-04-10T03:16:15.015Z,10.85
2023-04-10T03:18:44.132Z,10.67
2023-04-10T03:21:12.606Z,10.66
2023-04-10T03:23:40.854Z,10.74
2023-04-10T03:26:10.655Z,10.56
2023-04-10T03:28:41.403Z,10.58
2023-04-10T03:31:12.419Z,10.50
2023-04-10T03:33:42.312Z,10.43
2023-04-10T03:36:12.188Z,10.46
2023-04-10T03:38:40.591Z,10.42
2023-04-10T03:41:11.862Z,10.48
2023-04-10T03:43:40.979Z,10.48
2023-04-10T03:46:09.956Z,10.46
2023-04-10T03:48:43.156Z,10.46
2023-04-10T03:51:12.083Z,10.45
2023-04-10T03:53:40.394Z,10.55
2023-04-10T03:56:15.423Z,10.56
2023-04-10T03:58:43.952Z,10.60
2023-04-10T04:01:13.719Z,10.67
2023-04-10T04:04:01.337Z,10.78
2023-04-10T04:06:49.950Z,10.78
2023-04-10T04:09:29.348Z,10.87
2023-04-10T04:12:25.112Z,10.95
2023-04-10T04:15:12.309Z,11.09
2023-04-10T04:17:49.435Z,11.13
2023-04-10T04:20:36.508Z,11.05
2023-04-10T04:23:31.135Z,11.16
2023-04-10T04:26:19.737Z,11.08
2023-04-10T04:28:59.200Z,11.12
2023-04-10T04:31:46.452Z,11.18
2023-04-10T04:34:31.203Z,11.23
2023-04-10T04:37:18.109Z,11.36
2023-04-10T04:40:06.186Z,11.30
2023-04-10T04:42:47.425Z,11.27
2023-04-10T04:45:25.505Z,11.17
2023-04-10T04:48:13.759Z,11.13
2023-04-10T04:51:00.465Z,10.93
2023-04-10T04:53:49.042Z,10.97
2023-04-10T04:56:35.940Z,10.85
2023-04-10T04:59:11.345Z,10.89
2023-04-10T05:01:57.421Z,10.81
2023-04-10T05:04:58.454Z,10.79
2023-04-10T05:07:40.637Z,10.73
2023-04-10T05:10:40.006Z,10.74
2023-04-10T05:13:17.423Z,10.71
2023-04-10T05:16:15.075Z,10.74
2023-04-10T05:19:09.092Z,10.70
2023-04-10T05:21:55.833Z,10.61
2023-04-10T05:24:42.777Z,10.61
2023-04-10T05:27:15.076Z,10.51
2023-04-10T05:30:02.324Z,10.57
2023-04-10T05:33:00.328Z,10.63
2023-04-10T05:35:54.415Z,10.64
2023-04-10T05:38:38.391Z,10.62
2023-04-10T05:41:27.470Z,10.60
2023-04-10T05:44:04.332Z,10.61
2023-04-10T05:46:51.262Z,10.61
2023-04-10T05:49:27.530Z,10.64
2023-04-10T05:52:15.799Z,10.66
2023-04-10T05:54:44.079Z,10.69
2023-04-10T05:57:27.497Z,10.70
2023-04-10T06:00:28.076Z,10.67
2023-04-10T06:03:30.644Z,10.66
2023-04-10T06:06:03.514Z,10.75
2023-04-10T06:08:34.719Z,10.71
2023-04-10T06:11:03.386Z,10.75
2023-04-10T06:13:33.484Z,10.73
2023-04-10T06:16:03.421Z,10.78
2023-04-10T06:18:32.838Z,10.81
2023-04-10T06:21:02.044Z,10.77
2023-04-10T06:23:30.646Z,10.75
2023-04-10T06:26:01.248Z,10.78
2023-04-10T06:28:30.184Z,10.80
2023-04-10T06:31:04.272Z,10.84
2023-04-10T06:33:36.690Z,10.85
2023-04-10T06:36:08.073Z,10.97
2023-04-10T06:38:42.625Z,11.06
2023-04-10T06:41:12.310Z,11.07
2023-04-10T06:43:41.193Z,11.12
2023-04-10T06:46:09.559Z,11.15
2023-04-10T06:48:37.844Z,11.23
2023-04-10T06:51:06.560Z,11.27
2023-04-10T06:53:34.846Z,11.27
2023-04-10T06:56:03.783Z,11.32
2023-04-10T06:58:33.801Z,11.29
2023-04-10T07:01:04.525Z,11.33
2023-04-10T07:03:33.831Z,11.26
2023-04-10T07:06:03.422Z,11.36
2023-04-10T07:08:31.939Z,11.48
2023-04-10T07:11:00.318Z,11.52
2023-04-10T07:13:28.689Z,11.62
2023-04-10T07:15:58.405Z,11.57
2023-04-10T07:18:27.148Z,11.57
2023-04-10T07:20:55.453Z,11.56
2023-04-10T07:23:23.789Z,11.54
2023-04-10T07:25:52.798Z,11.59
2023-04-10T07:28:21.161Z,11.51
2023-04-10T07:30:49.453Z,11.58
2023-04-10T07:33:19.350Z,11.68
2023-04-10T07:35:48.180Z,11.60
2023-04-10T07:38:16.523Z,11.72
2023-04-10T07:40:44.868Z,11.50
2023-04-10T07:43:13.320Z,11.65
2023-04-10T07:45:42.656Z,11.72
2023-04-10T07:48:11.280Z,11.76
2023-04-10T07:50:41.147Z,11.81
2023-04-10T07:53:09.544Z,11.85
2023-04-10T07:55:41.032Z,11.95
2023-04-10T07:58:09.531Z,11.92
2023-04-10T08:00:38.363Z,11.80
2023-04-10T08:03:07.497Z,11.85
2023-04-10T08:05:36.487Z,11.82
2023-04-10T08:08:06.296Z,11.81
2023-04-10T08:10:34.650Z,11.89
2023-04-10T08:13:03.001Z,11.82
2023-04-10T08:15:31.405Z,11.89
2023-04-10T08:17:59.797Z,11.87
2023-04-10T08:20:28.608Z,11.73
2023-04-10T08:23:03.186Z,11.99
2023-04-10T08:25:35.901Z,12.18
2023-04-10T08:28:05.335Z,12.12
2023-04-10T08:30:33.618Z,12.18
2023-04-10T08:33:02.105Z,12.26
2023-04-10T08:35:30.487Z,12.44
2023-04-10T08:38:12.691Z,12.44
2023-04-10T08:40:44.785Z,12.52
2023-04-10T08:43:13.229Z,12.55
2023-04-10T08:45:42.404Z,12.72
2023-04-10T08:48:12.604Z,12.73
2023-04-10T08:50:44.099Z,12.74
2023-04-10T08:53:15.432Z,12.65
2023-04-10T08:55:46.635Z,12.62
2023-04-10T08:58:15.861Z,12.53
2023-04-10T09:00:44.597Z,12.57
2023-04-10T09:03:14.913Z,12.51
2023-04-10T09:05:43.674Z,12.51
2023-04-10T09:08:12.265Z,12.61
2023-04-10T09:10:40.742Z,12.03
2023-04-10T09:13:10.448Z,12.63
2023-04-10T09:15:57.457Z,12.54
2023-04-10T09:18:43.527Z,12.55
2023-04-10T09:21:14.668Z,12.56
2023-04-10T09:23:44.517Z,12.59
2023-04-10T09:26:28.125Z,11.97
2023-04-10T09:29:04.034Z,12.71
2023-04-10T09:31:35.911Z,12.57
2023-04-10T09:34:14.610Z,12.79
2023-04-10T09:36:43.730Z,12.89
2023-04-10T09:39:13.601Z,12.88
2023-04-10T09:41:53.541Z,12.96
2023-04-10T09:44:32.737Z,13.00
2023-04-10T09:47:23.206Z,12.96
2023-04-10T09:49:53.378Z,13.00
2023-04-10T09:52:25.617Z,12.90
2023-04-10T09:54:55.832Z,12.92
2023-04-10T09:57:26.593Z,13.06
2023-04-10T09:59:57.345Z,13.23
2023-04-10T10:02:27.299Z,13.41
2023-04-10T10:04:56.162Z,13.47
2023-04-10T10:07:25.591Z,13.68
2023-04-10T10:09:54.508Z,13.71
2023-04-10T10:12:28.072Z,13.80
2023-04-10T10:15:04.847Z,13.98
2023-04-10T10:17:44.653Z,14.03
2023-04-10T10:20:14.792Z,14.13
2023-04-10T10:22:44.122Z,14.21
2023-04-10T10:25:14.248Z,14.08
2023-04-10T10:27:43.616Z,14.11
2023-04-10T10:30:28.202Z,14.08
2023-04-10T10:32:59.928Z,14.17
2023-04-10T10:35:30.157Z,14.01
2023-04-10T10:38:00.474Z,14.38
2023-04-10T10:40:33.603Z,14.55
2023-04-10T10:43:12.240Z,14.67
2023-04-10T10:45:52.993Z,14.72
2023-04-10T10:48:21.286Z,14.80
2023-04-10T10:50:56.254Z,14.96
2023-04-10T10:53:39.672Z,15.13
2023-04-10T10:56:37.227Z,15.05
2023-04-10T10:59:05.688Z,14.97
2023-04-10T11:01:35.439Z,15.20
2023-04-10T11:04:43.869Z,15.14
2023-04-10T11:07:12.380Z,15.19
2023-04-10T11:09:48.825Z,15.00
2023-04-10T11:12:18.165Z,14.85
2023-04-10T11:14:58.050Z,15.00
2023-04-10T11:17:51.165Z,15.16
2023-04-10T11:20:21.799Z,15.13
2023-04-10T11:23:11.168Z,15.04
2023-04-10T11:25:51.268Z,14.93
2023-04-10T11:28:39.184Z,15.08
2023-04-10T11:31:22.083Z,14.57
2023-04-10T11:34:04.509Z,15.10
2023-04-10T11:36:33.527Z,15.17
2023-04-10T11:39:05.767Z,15.06
2023-04-10T11:41:36.827Z,15.03
2023-04-10T11:44:08.343Z,15.25
2023-04-10T11:46:39.091Z,15.27
2023-04-10T11:49:10.387Z,15.30
2023-04-10T11:51:40.827Z,15.26
2023-04-10T11:54:12.337Z,15.15
2023-04-10T11:56:44.112Z,15.31
2023-04-10T11:59:16.339Z,15.23
2023-04-10T12:01:45.022Z,15.31
2023-04-10T12:04:20.923Z,15.33
2023-04-10T12:06:54.008Z,15.41
2023-04-10T12:09:23.184Z,15.52
2023-04-10T12:11:53.637Z,15.50
2023-04-10T12:14:23.194Z,15.57
2023-04-10T12:16:52.824Z,15.47
2023-04-10T12:19:23.733Z,15.39
2023-04-10T12:21:52.384Z,15.44
2023-04-10T12:24:46.791Z,15.46
2023-04-10T12:27:19.104Z,15.32
2023-04-10T12:29:50.867Z,15.38
2023-04-10T12:32:19.967Z,15.30
2023-04-10T12:34:54.375Z,15.34
2023-04-10T12:37:22.761Z,15.16
2023-04-10T12:39:51.855Z,15.02
2023-04-10T12:42:22.683Z,14.93
2023-04-10T12:44:56.125Z,14.67
2023-04-10T12:47:25.655Z,14.78
2023-04-10T12:50:12.987Z,14.67
2023-04-10T12:52:44.024Z,14.62
2023-04-10T12:55:17.559Z,14.38
2023-04-10T12:57:47.449Z,14.40
2023-04-10T13:00:18.332Z,14.42
2023-04-10T13:02:49.176Z,14.45
2023-04-10T13:05:19.035Z,14.39
2023-04-10T13:07:49.047Z,14.25
2023-04-10T13:10:20.238Z,14.33
2023-04-10T13:12:48.852Z,14.27
2023-04-10T13:15:17.718Z,14.18
2023-04-10T13:17:46.114Z,14.25
2023-04-10T13:20:14.474Z,14.30
2023-04-10T13:22:44.257Z,14.32
2023-04-10T13:25:12.582Z,14.32
2023-04-10T13:27:40.921Z,14.32
2023-04-10T13:30:10.574Z,14.32
2023-04-10T13:32:38.919Z,14.28
2023-04-10T13:35:09.064Z,14.16
2023-04-10T13:37:37.402Z,14.15
2023-04-10T13:40:09.341Z,14.13
2023-04-10T13:42:40.536Z,13.92
2023-04-10T13:45:11.432Z,13.85
2023-04-10T13:47:39.803Z,13.86
2023-04-10T13:50:09.311Z,13.67
2023-04-10T13:52:37.639Z,13.66
2023-04-10T13:55:09.098Z,13.48
2023-04-10T13:57:37.745Z,13.50
2023-04-10T14:00:10.269Z,13.49
2023-04-10T14:02:41.890Z,13.50
2023-04-10T14:05:11.883Z,13.39
2023-04-10T14:07:40.290Z,13.43
2023-04-10T14:10:11.652Z,13.55
2023-04-10T14:12:40.007Z,13.46
2023-04-10T14:15:09.840Z,13.55
2023-04-10T14:17:38.243Z,13.41
2023-04-10T14:20:11.341Z,13.47
2023-04-10T14:22:39.798Z,13.46
2023-04-10T14:25:15.853Z,13.29
2023-04-10T14:27:45.554Z,13.32
2023-04-10T14:30:14.042Z,13.34
2023-04-10T14:32:42.631Z,13.39
2023-04-10T14:35:11.995Z,12.88
2023-04-10T14:37:40.601Z,13.18
2023-04-10T14:40:11.980Z,13.41
2023-04-10T14:42:40.345Z,13.34
2023-04-10T14:45:10.599Z,13.38
2023-04-10T14:47:39.004Z,13.42
2023-04-10T14:50:09.080Z,13.44
2023-04-10T14:52:37.415Z,13.40
2023-04-10T14:55:06.733Z,13.36
2023-04-10T14:57:36.473Z,13.37
2023-04-10T15:00:05.686Z,13.30
2023-04-10T15:02:34.100Z,13.24
2023-04-10T15:05:02.572Z,13.29
2023-04-10T15:07:31.053Z,13.26
2023-04-10T15:09:59.720Z,13.26
2023-04-10T15:12:28.043Z,13.26
2023-04-10T15:14:57.728Z,12.78
2023-04-10T15:17:26.157Z,13.26
2023-04-10T15:19:54.511Z,13.27
2023-04-10T15:22:22.772Z,13.22
2023-04-10T15:24:51.255Z,13.26
2023-04-10T15:27:21.559Z,13.19
2023-04-10T15:29:50.318Z,13.31
2023-04-10T15:32:20.167Z,13.35
2023-04-10T15:34:48.581Z,13.29
2023-04-10T15:37:16.914Z,13.32
2023-04-10T15:39:45.272Z,13.25
2023-04-10T15:42:13.637Z,13.24
2023-04-10T15:44:41.977Z,13.30
2023-04-10T15:47:10.224Z,13.25
2023-04-10T15:49:41.921Z,13.29
2023-04-10T15:52:10.351Z,13.33
2023-04-10T15:54:39.943Z,13.37
2023-04-10T15:57:08.276Z,13.33
2023-04-10T15:59:38.114Z,13.27
2023-04-10T16:02:06.553Z,13.26
2023-04-10T16:04:35.381Z,13.31
2023-04-10T16:07:05.202Z,13.29
2023-04-10T16:09:33.686Z,13.27
2023-04-10T16:12:02.118Z,13.34
2023-04-10T16:14:30.530Z,13.35
2023-04-10T16:16:58.800Z,13.32
2023-04-10T16:19:27.190Z,13.36
2023-04-10T16:21:57.098Z,13.33
2023-04-10T16:24:26.929Z,13.28
2023-04-10T16:26:55.232Z,13.33
2023-04-10T16:29:23.542Z,13.38
2023-04-10T16:31:51.889Z,13.36
2023-04-10T16:34:20.324Z,13.27
2023-04-10T16:36:48.650Z,13.45
2023-04-10T16:39:17.000Z,13.44
2023-04-10T16:41:46.672Z,13.41
2023-04-10T16:44:15.001Z,13.47
2023-04-10T16:46:43.416Z,13.44
2023-04-10T16:49:11.789Z,13.38
2023-04-10T16:51:40.210Z,13.44
2023-04-10T16:54:08.609Z,13.45
2023-04-10T16:56:36.910Z,13.41
2023-04-10T16:59:06.601Z,13.42
2023-04-10T17:01:39.600Z,13.41
2023-04-10T17:04:09.267Z,13.45
2023-04-10T17:06:37.711Z,13.48
2023-04-10T17:09:06.131Z,13.55
2023-04-10T17:11:34.435Z,13.47
2023-04-10T17:14:03.106Z,13.47
2023-04-10T17:16:32.964Z,13.48
2023-04-10T17:19:01.272Z,13.44
2023-04-10T17:21:29.708Z,13.46
2023-04-10T17:23:58.071Z,13.44
2023-04-10T17:26:26.405Z,13.44
2023-04-10T17:28:54.767Z,13.27
2023-04-10T17:31:23.228Z,13.47
2023-04-10T17:33:52.981Z,13.41
2023-04-10T17:36:21.352Z,13.39
2023-04-10T17:38:54.021Z,13.42
2023-04-10T17:41:22.594Z,13.40
2023-04-10T17:43:51.046Z,13.38
2023-04-10T17:46:19.382Z,13.38
2023-04-10T17:48:47.803Z,13.28
2023-04-10T17:51:17.610Z,13.37
2023-04-10T17:53:46.207Z,13.44
2023-04-10T17:56:20.958Z,13.52
2023-04-10T17:58:49.476Z,13.40
2023-04-10T18:01:25.734Z,13.36
2023-04-10T18:03:54.198Z,13.43
2023-04-10T18:06:24.207Z,13.40
2023-04-10T18:08:52.817Z,13.35
2023-04-10T18:11:22.756Z,13.39
2023-04-10T18:13:51.430Z,13.43
2023-04-10T18:16:19.933Z,13.37
2023-04-10T18:18:48.365Z,13.42
2023-04-10T18:21:16.821Z,13.35
2023-04-10T18:23:46.578Z,13.34
2023-04-10T18:26:15.023Z,13.39
2023-04-10T18:28:43.567Z,13.37
2023-04-10T18:31:14.767Z,13.41
2023-04-10T18:33:43.644Z,13.42
2023-04-10T18:36:14.020Z,13.40
2023-04-10T18:38:43.876Z,13.39
2023-04-10T18:41:13.733Z,13.43
2023-04-10T18:43:42.376Z,13.42
2023-04-10T18:46:14.246Z,13.45
2023-04-10T18:48:44.017Z,13.40
2023-04-10T18:51:12.656Z,13.42
2023-04-10T18:53:41.348Z,13.34
2023-04-10T18:56:09.929Z,13.30
2023-04-10T18:58:39.609Z,13.28
2023-04-10T19:01:08.453Z,13.27
2023-04-10T19:03:37.509Z,13.16
2023-04-10T19:06:06.465Z,13.22
2023-04-10T19:08:34.815Z,13.19
2023-04-10T19:11:05.990Z,13.19
2023-04-10T19:13:34.763Z,13.21
2023-04-10T19:16:08.913Z,13.21
2023-04-10T19:18:37.256Z,13.16
2023-04-10T19:21:06.150Z,13.19
2023-04-10T19:23:35.533Z,13.19
2023-04-10T19:26:03.882Z,13.06
2023-04-10T19:28:32.656Z,13.21
2023-04-10T19:31:01.070Z,13.15
2023-04-10T19:33:30.906Z,13.11
2023-04-10T19:35:59.277Z,13.12
2023-04-10T19:38:29.312Z,13.15
2023-04-10T19:40:57.677Z,13.13
2023-04-10T19:43:26.294Z,12.48
2023-04-10T19:45:55.116Z,13.10
2023-04-10T19:48:23.526Z,13.07
2023-04-10T19:50:53.342Z,13.21
2023-04-10T19:53:21.745Z,13.21
2023-04-10T19:55:50.199Z,13.21
2023-04-10T19:58:36.011Z,13.20
2023-04-10T20:01:08.722Z,13.13
2023-04-10T20:03:38.533Z,13.15
2023-04-10T20:06:09.126Z,13.18
2023-04-10T20:08:37.884Z,13.15
2023-04-10T20:11:07.102Z,13.11
2023-04-10T20:13:35.605Z,13.12
2023-04-10T20:16:03.987Z,13.00
2023-04-10T20:18:32.844Z,12.79
2023-04-10T20:21:01.270Z,12.93
2023-04-10T20:23:31.213Z,12.95
2023-04-10T20:25:59.578Z,12.87
2023-04-10T20:28:28.000Z,12.85
2023-04-10T20:30:56.402Z,12.82
2023-04-10T20:33:24.873Z,12.81
2023-04-10T20:35:54.511Z,12.77
2023-04-10T20:38:22.807Z,12.83
2023-04-10T20:40:52.477Z,12.80
2023-04-10T20:43:21.062Z,12.72
2023-04-10T20:45:49.363Z,12.71
2023-04-10T20:48:17.713Z,12.64
2023-04-10T20:50:49.088Z,12.63
2023-04-10T20:53:17.485Z,12.59
2023-04-10T20:55:45.790Z,12.55
2023-04-10T20:58:15.562Z,12.59
2023-04-10T21:00:43.921Z,12.62
2023-04-10T21:03:12.449Z,12.59
2023-04-10T21:05:42.084Z,12.63
2023-04-10T21:08:11.080Z,12.57
2023-04-10T21:10:44.203Z,12.57
2023-04-10T21:13:16.134Z,12.51
2023-04-10T21:15:44.787Z,12.53
2023-04-10T21:18:13.071Z,12.53
2023-04-10T21:20:43.285Z,12.55
2023-04-10T21:23:11.763Z,12.28
2023-04-10T21:25:40.439Z,12.23
2023-04-10T21:28:08.823Z,11.97
2023-04-10T21:30:38.593Z,11.88
2023-04-10T21:33:06.934Z,11.91
2023-04-10T21:35:35.364Z,11.85
2023-04-10T21:38:03.748Z,11.76
2023-04-10T21:40:34.286Z,11.58
2023-04-10T21:43:03.194Z,11.68
2023-04-10T21:45:31.877Z,11.48
2023-04-10T21:48:01.987Z,11.81
2023-04-10T21:50:30.376Z,11.78
2023-04-10T21:53:00.059Z,11.72
2023-04-10T21:55:28.490Z,11.83
2023-04-10T21:57:57.384Z,11.87
2023-04-10T22:00:26.280Z,11.91
2023-04-10T22:02:54.689Z,11.99
2023-04-10T22:05:25.116Z,11.79
2023-04-10T22:07:53.718Z,11.98
2023-04-10T22:10:22.038Z,11.98
2023-04-10T22:12:50.334Z,12.04
2023-04-10T22:15:18.677Z,12.11
2023-04-10T22:17:47.007Z,12.04
2023-04-10T22:20:15.517Z,12.05
2023-04-10T22:22:45.288Z,11.98
2023-04-10T22:25:13.589Z,11.91
2023-04-10T22:27:41.942Z,11.76
2023-04-10T22:30:13.034Z,11.76
2023-04-10T22:32:41.615Z,11.70
2023-04-10T22:35:10.227Z,11.55
2023-04-10T22:37:38.687Z,11.50
2023-04-10T22:40:10.639Z,11.56
2023-04-10T22:42:38.915Z,11.49
2023-04-10T22:45:08.848Z,11.59
2023-04-10T22:47:37.136Z,11.52
2023-04-10T22:50:07.208Z,11.56
2023-04-10T22:52:36.040Z,11.57
2023-04-10T22:55:06.769Z,11.59
2023-04-10T22:57:36.285Z,11.62
2023-04-10T23:00:05.389Z,11.65
2023-04-10T23:02:33.802Z,11.64
2023-04-10T23:05:02.863Z,11.61
2023-04-10T23:07:31.158Z,11.65
2023-04-10T23:10:01.260Z,11.66
2023-04-10T23:12:29.675Z,11.53
2023-04-10T23:14:59.452Z,11.52
2023-04-10T23:17:27.718Z,11.54
2023-04-10T23:19:56.072Z,11.51
2023-04-10T23:22:24.465Z,11.55
2023-04-10T23:24:54.897Z,11.56
2023-04-10T23:27:23.973Z,11.58
2023-04-10T23:29:52.414Z,11.61
2023-04-10T23:32:22.170Z,11.66
2023-04-10T23:34:50.535Z,11.72
2023-04-10T23:37:18.812Z,11.69
2023-04-10T23:39:47.195Z,11.66
2023-04-10T23:42:15.488Z,11.54
2023-04-10T23:44:43.788Z,11.61
2023-04-10T23:47:12.111Z,11.60
2023-04-10T23:49:41.759Z,11.50
2023-04-10T23:52:11.569Z,11.51
2023-04-10T23:54:39.903Z,11.39
2023-04-10T23:57:08.181Z,11.50
2023-04-10T23:59:36.509Z,11.50
